Skip to content

GuitarMania

(*.221.112.242) 조회 수 8241 댓글 9
예전에 동영상 촬영한 이곡 key가 좀 낮은 듯하여 조를 옮겨서 한번 녹음해 봤습니다
(줄도 새로 갈은 기념으로...줄은 갈리 지니어스 카본, 노멀...coart에서 만오천에 주문했지요)

동영상으로 찍을려고 했더니만 tape가 찝히는 바람에, 그냥 녹음연습도 해 볼 겸 마이크로 녹음해 봤습니다.
예전에 밀롱가님이 알려주신대로 사운드포지 수치들을 적용을 해 봤는데....후후..
(수치들을 적용한 것과 적용하지 않은 것 모두 비슷하게 들리는군요. 녹음도 사람을 무척 차별하는 것 같습니다)  
  
Comment '9'
  • 기타손 2007.07.28 19:26 (*.172.54.56)
    멜로디가 빗방울 듣는 소리 같습니다. 동영상 때와 다르게 음이 정말 클래식칼 합니다.
  • 악보좀 2007.08.04 23:33 (*.205.151.62)
    얻을 수 있을까요... 악보 자료실에 올려주시면 감사....
    젊었을 때 듣던 노래의 추억이 살아나서요.....
    연주 잘 들었습니다. 높은 음과 낮은 음 멜로디의 대화가 여자 가수와 남자 가수의 노래처럼 들리는군요.....
  • 리노 2007.08.08 10:37 (*.35.84.142)
    후후님의 연주는 언제들어도 좋군요
    악보좀 부탁드립니다.당신,흰눈악보도 같이 좀 보내주시면 감사하겠습니다.
    wirino@hanmail.net
  • 용가리 2007.08.12 12:27 (*.202.134.234)
    봄비를 맞으며 들녘길을 걷는 느낌이네요.
    잘들었습니다. 혹시 악보 보내주실수 있나요?
    yonggary7714@yahoo.co.kr 감사합니다.
  • 태다윗 2007.08.14 17:36 (*.179.205.235)
    가날프고 듣기 좋네요. 악보 구할 수 있나요

    tdawt@yahoo.co.kr 부탁합니다.
  • 신동여 2007.08.26 11:27 (*.252.97.103)
    너무 좋군요..죄송하지만 저도 악보좀 안될까요? beauy21@hanmail.net 부탁합니다
  • goni 2014.01.22 10:48 (*.202.253.191)
    아 이악보를 구할수 있을런지요 외람되지만 부탁드립니다
    gon3213@daum.net
  • jazzman 2014.01.22 18:58 (*.160.123.171)
    어허... 이런 후후님 오랫만입니다, 하려다가 보니 2007년에 올리셨던 거네요. -_-;;;;;

    고니님, 후후님은 멜로디 주면 머릿속에서 편곡해서 그냥 연주하시는 걸로 알고 있습니다. 그래서, 악보가 필요 없는 분이시라, ^^;;;;; 아마 없을 겁니다. 그리고 요새 기타매니아 오시는 지 아닌 지도 잘 모르겠네요.
  • jons 2014.01.23 09:49 (*.8.140.54)
    후후님, 즉흥 연주의 레젼드라 할가요 ... 어데선가 지켜봐 주실겁니다, 장사 계속하시눈지 ... 궁금 하군요,
?

List of Articles
번호 제목 글쓴이 날짜 조회 수
1794 John Lennon의 "Love" 25 file huhu.. 2007.07.29 5972
1793 17. Lettre encore... - Roland Dyens 1 file 밀롱가. 2007.07.29 4321
» 그댄 봄비를 무척 좋아하나요(조옮김version) 9 file huhu.. 2007.07.28 8241
1791 16. Lettre a Isaac, Emilio et les autres - Roland Dyens 4 file 밀롱가. 2007.07.25 3929
1790 종소리 3 file 칠점 2007.07.24 4350
1789 카르카시25 연습곡중 16번_ 3 file 암흑 2007.07.24 5012
1788 김현식의 "사랑했어요" 5 file huhu.. 2007.07.23 6119
1787 유심초의 "사랑하는 그대에게" file huhu.. 2007.07.23 6557
1786 15. Lettre a Jacues Cartier - Roland Dyens 1 file 밀롱가. 2007.07.21 3929
1785 14. Lettre au calme - Roland Dyens 1 file 밀롱가. 2007.07.21 4029
1784 비가오네요...rain drops입니다.. 3 file amabile 2007.07.19 4247
1783 13. Lettre et le neant - Roland Dyens 11 file 밀롱가. 2007.07.18 4331
1782 12. Lettre a demain - Roland Dyens 1 file 밀롱가. 2007.07.18 3925
1781 11. Lettre Nordestine - Roland Dyens 2 file 밀롱가. 2007.07.17 3912
1780 Agustin Barrios, Preludio en do menor 2 file 팔리아치 2007.07.17 5667
1779 La Catedral, I. Preludio Saudade 2 file 팔리아치 2007.07.17 5594
1778 라리아네의 축제 4 file yhc 2007.07.16 5226
1777 10. Lettre a la vieille Angleterre - Roland Dyens 5 file 밀롱가. 2007.07.15 3941
1776 9. Lettre a Claude et Maurice- Roland Dyens 3 file 밀롱가. 2007.07.14 4519
1775 로망스-원큐 애드립 놀이 6 file 팔리아치 2007.07.14 4893
1774 타레가 에튜드로 오른손 변주 2 file 팔리아치 2007.07.14 4342
1773 아침 손풀이 카바티나 3 file 팔리아치 2007.07.14 4256
1772 월광-베토벤 입니다. 8 file G-Love 2007.07.13 4894
1771 8. Venezuelettre - Roland Dyens 2 file 밀롱가. 2007.07.12 3678
1770 7. Lettre latine - Roland Dyens 3 file 밀롱가. 2007.07.12 4450
1769 카르카시25 연습곡중 16번 3 file 암흑 2007.07.12 5061
1768 샤콩 좋아하는부분만 잘라서 2 file 좁은길로 2007.07.11 3914
1767 6. Lettre mi-longue - Roland Dyens 2 file 밀롱가. 2007.07.11 3840
1766 로망스-스패인민요 입니다. 10 file G-Love 2007.07.11 4705
1765 쉘부르의 우산 18 file 항해사 2007.07.11 6052
1764 항구의 봄 (Primavera portena) 4 예의서방 2007.07.10 5592
1763 The Flatt Pavin -John Johnson 8 file 지초이 2007.07.10 4080
1762 Galliard -John Johnson 1 file 지초이 2007.07.10 4015
1761 Schubert Minuet and Trio,Trans by Tarrega - Jason님 연주 11 암흑 2007.07.09 4424
1760 세레나데-슈베르트 입니다. 4 file G-Love 2007.07.09 5152
1759 마적 3 file 칠점 2007.07.08 4205
1758 故김광석의 "거리에서" 8 file huhu.. 2007.07.08 7747
1757 연습중인 BWV998 ,Prelude 부분 1 file 좁은길로 2007.07.08 6523
1756 5. Lettre francaise - Roland Dyens 2 file 밀롱가. 2007.07.07 4005
1755 Franz Peter Schubert - Nacht und Traume(밤과꿈) 8 file 항해사 2007.07.07 5111
1754 4. Lettre a soi-meme - Roland Dyens 3 file 밀롱가. 2007.07.05 3734
1753 카르카시25 연습곡중 15번 10 file 암흑 2007.07.05 4323
1752 3. Lettre noire - Roland Dyens 6 file 밀롱가. 2007.07.04 3841
1751 알함브라행 막차.. 8 file 진느 2007.07.04 4844
1750 2. Lettre a la Seine - Roland Dyens 3 file 밀롱가. 2007.07.03 3929
1749 1. Lettre a Sydney - Roland Dyens 2 file 밀롱가. 2007.07.02 4703
1748 Eric Clapton - Signe 8 2007.07.02 5637
1747 Twilight (黃昏 : 황혼) 4 2007.07.02 4795
1746 Leo Brouwer 10 Etude Simples - #10 7 file 밀롱가. 2007.06.29 4269
1745 Leo Brouwer 10 Etude Simples - #9 3 file 밀롱가. 2007.06.29 4037
1744 알함브라 2 file 칠점 2007.06.29 4594
1743 꿈길에서 - 포스터 4 file 짜가운오적어 2007.06.27 5877
1742 캐리비안의 해적 He is a pirate 44 file MSGr 2007.06.27 8606
1741 [예전꺼] 별헤는 아이 5 file 항해사 2007.06.23 4755
1740 꿀벌 1 file 칠점 2007.06.21 5388
1739 Leo Brouwer 10 Etude Simples - #8 2 file 밀롱가. 2007.06.19 4322
1738 심상 (망고레) 이어지는 삽질의 원샷 4 file PassMan 2007.06.19 4552
1737 El Ultimo Cancion 간만에 원샷 녹음 4 file PassMan 2007.06.19 5740
1736 알함브라- 콩쿨 지정곡(ㅋㅋㅋ) 7 file fernando 2007.06.19 4816
1735 제가 혼자 삽질한 알함브라입니다.ㅠ 3 file 런던busker 2007.06.19 4046
1734 울티모 3 file 칠점 2007.06.18 4807
1733 카르카시25 연습곡중 14번 10 file 암흑 2007.06.17 5531
1732 sonata brillant-M.Giuliani 3 file yhc 2007.06.16 6924
1731 요즘 연습중인 스카를랏티 소나타 k380 4 file 최병욱 2007.06.16 4408
1730 F . Tarrega - Recuerdos de la Alhambra 12 file 고정석 2007.06.15 5930
1729 Recuerdos de la Alhambra 6 file 2007.06.15 6027
1728 Leo Brouwer 10 Etude Simples - #7 4 file 밀롱가. 2007.06.15 3881
1727 Andantino Op.2 No3- Sor 9 file 지초이 2007.06.15 4065
1726 Leo Brouwer 10 Etude Simples - #6 2 file 밀롱가. 2007.06.14 3567
1725 Leo Brouwer 10 Etude Simples - #5 file 밀롱가. 2007.06.14 3938
1724 Leo Brouwer 10 Etude Simples - #4 file 밀롱가. 2007.06.14 3920
1723 바하의 G선상의 아리아[Aria in Suite 3] mrpotato 2007.06.14 5391
1722 대리석궁전에 사는 꿈을 꾸었어요[I dreamt I dwelt in marble halls] 2 mrpotato 2007.06.14 7864
1721 바위섬[Rock Island] mrpotato 2007.06.14 4745
1720 [동영상]He is a pirate (영화 "캐리비언의 해적"중에서) 9 file 꼬마영규 2007.06.10 7415
1719 바흐 류트 조곡 1번 프렐류드.. 1 manicstreetprechers 2007.06.10 4315
1718 윤도현 "사랑했나봐" 3 huhu.. 2007.06.10 5447
1717 [re] "사랑했나봐" 조정분 file huhu.. 2007.08.14 4444
1716 센과 치히로 행방불명 ost 3 - 情 - 2007.06.10 5544
1715 Leo Brouwer 10 Etude Simples - #3 1 file 밀롱가. 2007.06.10 4267
1714 햇빛촌 "유리창엔 비" huhu.. 2007.06.08 6073
1713 은희 "꽃반지 끼고" 4 huhu.. 2007.06.08 7913
1712 꽃반지 끼고 - 은희 14 file 항해사 2007.06.08 6996
1711 Leo Brouwer 10 Etude Simples - #2 5 file 밀롱가. 2007.06.08 4060
1710 Leo Brouwer 10 Etude Simples - #1 3 file 밀롱가. 2007.06.06 4207
1709 Avec le temps 2 file 밀롱가. 2007.06.02 4139
1708 조용필 "물망초" huhu.. 2007.06.02 5820
1707 알함브라궁전의 추억 3 굼벵이 2007.06.02 4921
1706 벌새 2 칠점 2007.06.01 5258
1705 월량대표아적심 13 file G-Love 2007.06.01 4863
1704 울티모 6 칠점 2007.05.30 3936
1703 알함브라 6 file G-Love 2007.05.30 4484
1702 [re] 알함브라 5 barrios 2007.05.30 4004
1701 촛불-정태춘 3 file yhc 2007.05.29 4659
1700 오페라 잔니 스키키에서 아버지에게 소원 10 file 항해사 2007.05.29 4745
1699 홍삼트리오 "기도" 9 huhu.. 2007.05.29 5857
1698 이루의 "까만안경" 3 huhu.. 2007.05.29 5042
1697 [re] "까만안경" 조정분 file huhu.. 2007.08.14 4375
1696 월량대표아적심(月亮代表我的心) 70 huhu.. 2007.05.29 16706
1695 [re] 월량대표아적심(月亮代表我的心) 조정분 file huhu.. 2007.08.14 4596
Board Pagination ‹ Prev 1 2 3 4 5 6 7 8 9 10 11 12 13 14 15 16 17 18 19 20 21 ... 29 Next ›
/ 29

나눔글꼴 설치 안내


이 PC에는 나눔글꼴이 설치되어 있지 않습니다.

이 사이트를 나눔글꼴로 보기 위해서는
나눔글꼴을 설치해야 합니다.

설치 취소

Designed by sketchbooks.co.kr / sketchbook5 board skin

Sketchbook5, 스케치북5

Sketchbook5, 스케치북5

Sketchbook5, 스케치북5

Sketchbook5, 스케치북5

Powered by Xpress Engine / Designed by hikaru100

abcXYZ, 세종대왕,1234

abcXYZ, 세종대왕,1234